sensor_id;sensor_type;location;lat;lon;timestamp;temperature;humidity
7496;DHT22;3789;47.064;15.482;2023-02-01T00:00:31;-4.00;99.90
7496;DHT22;3789;47.064;15.482;2023-02-01T00:03:00;-3.60;99.90
7496;DHT22;3789;47.064;15.482;2023-02-01T00:05:27;-3.30;99.90
7496;DHT22;3789;47.064;15.482;2023-02-01T00:07:54;-2.90;99.90
7496;DHT22;3789;47.064;15.482;2023-02-01T00:10:21;-2.70;99.90
7496;DHT22;3789;47.064;15.482;2023-02-01T00:12:49;-2.40;99.90
7496;DHT22;3789;47.064;15.482;2023-02-01T00:15:16;-2.30;99.90
7496;DHT22;3789;47.064;15.482;2023-02-01T00:17:44;-2.10;99.90
7496;DHT22;3789;47.064;15.482;2023-02-01T00:20:11;-1.90;99.90
7496;DHT22;3789;47.064;15.482;2023-02-01T00:22:38;-1.80;99.90
7496;DHT22;3789;47.064;15.482;2023-02-01T00:25:06;-1.60;99.90
7496;DHT22;3789;47.064;15.482;2023-02-01T00:27:33;-1.30;99.90
7496;DHT22;3789;47.064;15.482;2023-02-01T00:30:01;-1.10;99.90
7496;DHT22;3789;47.064;15.482;2023-02-01T00:32:28;-0.90;99.90
7496;DHT22;3789;47.064;15.482;2023-02-01T00:34:55;-0.80;99.90
7496;DHT22;3789;47.064;15.482;2023-02-01T00:37:22;-0.80;99.90
7496;DHT22;3789;47.064;15.482;2023-02-01T00:39:50;-0.70;99.90
7496;DHT22;3789;47.064;15.482;2023-02-01T00:42:17;-0.60;99.90
7496;DHT22;3789;47.064;15.482;2023-02-01T00:44:44;-0.60;99.90
7496;DHT22;3789;47.064;15.482;2023-02-01T00:47:11;-0.50;99.90
7496;DHT22;3789;47.064;15.482;2023-02-01T00:49:38;-0.50;99.90
7496;DHT22;3789;47.064;15.482;2023-02-01T00:52:06;-0.50;99.90
7496;DHT22;3789;47.064;15.482;2023-02-01T00:54:33;-0.50;99.90
7496;DHT22;3789;47.064;15.482;2023-02-01T00:57:00;-0.40;99.90
7496;DHT22;3789;47.064;15.482;2023-02-01T00:59:27;-0.30;99.90
7496;DHT22;3789;47.064;15.482;2023-02-01T01:01:54;-0.30;99.90
7496;DHT22;3789;47.064;15.482;2023-02-01T01:04:21;-0.20;99.90
7496;DHT22;3789;47.064;15.482;2023-02-01T01:06:48;-0.30;99.90
7496;DHT22;3789;47.064;15.482;2023-02-01T01:09:16;-0.30;99.90
7496;DHT22;3789;47.064;15.482;2023-02-01T01:11:43;-0.30;99.90
7496;DHT22;3789;47.064;15.482;2023-02-01T01:14:10;-0.20;99.90
7496;DHT22;3789;47.064;15.482;2023-02-01T01:16:38;-0.30;99.90
7496;DHT22;3789;47.064;15.482;2023-02-01T01:19:05;-0.20;99.90
7496;DHT22;3789;47.064;15.482;2023-02-01T01:21:33;-0.20;99.90
7496;DHT22;3789;47.064;15.482;2023-02-01T01:24:01;-0.40;99.90
7496;DHT22;3789;47.064;15.482;2023-02-01T01:26:29;-1.30;99.90
7496;DHT22;3789;47.064;15.482;2023-02-01T01:28:58;-2.40;99.90
7496;DHT22;3789;47.064;15.482;2023-02-01T01:31:26;-3.40;99.90
7496;DHT22;3789;47.064;15.482;2023-02-01T01:33:55;-4.10;99.90
7496;DHT22;3789;47.064;15.482;2023-02-01T01:36:23;-4.70;99.90
7496;DHT22;3789;47.064;15.482;2023-02-01T01:38:51;-5.20;99.90
7496;DHT22;3789;47.064;15.482;2023-02-01T01:41:21;-5.50;99.90
7496;DHT22;3789;47.064;15.482;2023-02-01T01:46:22;-5.70;99.90
7496;DHT22;3789;47.064;15.482;2023-02-01T01:48:54;-5.80;99.90
7496;DHT22;3789;47.064;15.482;2023-02-01T01:51:24;-6.10;99.90
7496;DHT22;3789;47.064;15.482;2023-02-01T01:54:01;-6.30;99.90
7496;DHT22;3789;47.064;15.482;2023-02-01T01:56:30;-6.40;99.90
7496;DHT22;3789;47.064;15.482;2023-02-01T01:58:58;-6.50;99.90
7496;DHT22;3789;47.064;15.482;2023-02-01T02:01:26;-6.50;99.90
7496;DHT22;3789;47.064;15.482;2023-02-01T02:03:54;-6.60;99.90
7496;DHT22;3789;47.064;15.482;2023-02-01T02:09:01;-6.90;99.90
7496;DHT22;3789;47.064;15.482;2023-02-01T02:11:32;-7.00;99.90
7496;DHT22;3789;47.064;15.482;2023-02-01T02:13:59;-7.00;99.90
7496;DHT22;3789;47.064;15.482;2023-02-01T02:16:54;-7.00;99.90
7496;DHT22;3789;47.064;15.482;2023-02-01T02:44:48;-5.70;99.90
7496;DHT22;3789;47.064;15.482;2023-02-01T02:48:37;-5.90;99.90
7496;DHT22;3789;47.064;15.482;2023-02-01T02:50:58;-5.60;99.90
7496;DHT22;3789;47.064;15.482;2023-02-01T02:53:56;-6.00;99.90
7496;DHT22;3789;47.064;15.482;2023-02-01T02:56:43;-6.40;99.90
7496;DHT22;3789;47.064;15.482;2023-02-01T02:59:30;-6.60;99.90
7496;DHT22;3789;47.064;15.482;2023-02-01T03:02:16;-6.80;99.90
7496;DHT22;3789;47.064;15.482;2023-02-01T03:05:37;-6.30;99.90
7496;DHT22;3789;47.064;15.482;2023-02-01T03:08:14;-6.30;99.90
7496;DHT22;3789;47.064;15.482;2023-02-01T03:11:05;-6.50;99.90
7496;DHT22;3789;47.064;15.482;2023-02-01T03:13:38;-6.60;99.90
7496;DHT22;3789;47.064;15.482;2023-02-01T03:22:22;-5.70;99.90
7496;DHT22;3789;47.064;15.482;2023-02-01T03:24:38;-5.40;99.90
7496;DHT22;3789;47.064;15.482;2023-02-01T03:32:36;-5.40;99.90
7496;DHT22;3789;47.064;15.482;2023-02-01T03:35:30;-4.40;99.90
7496;DHT22;3789;47.064;15.482;2023-02-01T03:38:22;-3.70;99.90
7496;DHT22;3789;47.064;15.482;2023-02-01T03:40:58;-3.40;99.90
7496;DHT22;3789;47.064;15.482;2023-02-01T03:43:35;-3.10;99.90
7496;DHT22;3789;47.064;15.482;2023-02-01T03:46:11;-2.90;99.90
7496;DHT22;3789;47.064;15.482;2023-02-01T03:48:40;-2.60;99.90
7496;DHT22;3789;47.064;15.482;2023-02-01T03:51:09;-2.50;99.90
7496;DHT22;3789;47.064;15.482;2023-02-01T03:53:39;-2.40;99.90
7496;DHT22;3789;47.064;15.482;2023-02-01T03:56:08;-2.20;99.90
7496;DHT22;3789;47.064;15.482;2023-02-01T03:58:38;-2.10;99.90
7496;DHT22;3789;47.064;15.482;2023-02-01T04:01:06;-2.00;99.90
7496;DHT22;3789;47.064;15.482;2023-02-01T04:03:34;-1.80;99.90
7496;DHT22;3789;47.064;15.482;2023-02-01T04:06:01;-1.80;99.90
7496;DHT22;3789;47.064;15.482;2023-02-01T04:08:29;-1.80;99.90
7496;DHT22;3789;47.064;15.482;2023-02-01T04:10:56;-1.80;99.90
7496;DHT22;3789;47.064;15.482;2023-02-01T04:13:23;-1.80;99.90
7496;DHT22;3789;47.064;15.482;2023-02-01T04:15:50;-1.80;99.90
7496;DHT22;3789;47.064;15.482;2023-02-01T04:18:18;-1.80;99.90
7496;DHT22;3789;47.064;15.482;2023-02-01T04:20:45;-1.80;99.90
7496;DHT22;3789;47.064;15.482;2023-02-01T04:23:12;-1.80;99.90
7496;DHT22;3789;47.064;15.482;2023-02-01T04:25:40;-1.70;99.90
7496;DHT22;3789;47.064;15.482;2023-02-01T04:28:07;-1.60;99.90
7496;DHT22;3789;47.064;15.482;2023-02-01T04:30:34;-1.50;99.90
7496;DHT22;3789;47.064;15.482;2023-02-01T04:33:01;-1.40;99.90
7496;DHT22;3789;47.064;15.482;2023-02-01T04:35:32;-1.10;99.90
7496;DHT22;3789;47.064;15.482;2023-02-01T04:38:00;-0.90;99.90
7496;DHT22;3789;47.064;15.482;2023-02-01T04:40:27;-0.80;99.90
7496;DHT22;3789;47.064;15.482;2023-02-01T04:42:54;-0.80;99.90
7496;DHT22;3789;47.064;15.482;2023-02-01T04:45:21;-0.90;99.90
7496;DHT22;3789;47.064;15.482;2023-02-01T04:47:49;-0.90;99.90
7496;DHT22;3789;47.064;15.482;2023-02-01T04:50:16;-0.90;99.90
7496;DHT22;3789;47.064;15.482;2023-02-01T04:52:43;-0.90;99.90
7496;DHT22;3789;47.064;15.482;2023-02-01T04:55:12;-0.90;99.90
7496;DHT22;3789;47.064;15.482;2023-02-01T04:57:42;-0.90;99.90
7496;DHT22;3789;47.064;15.482;2023-02-01T05:00:10;-1.10;99.90
7496;DHT22;3789;47.064;15.482;2023-02-01T05:02:38;-1.20;99.90
7496;DHT22;3789;47.064;15.482;2023-02-01T05:05:06;-1.30;99.90
7496;DHT22;3789;47.064;15.482;2023-02-01T05:07:50;-1.30;99.90
7496;DHT22;3789;47.064;15.482;2023-02-01T05:10:18;-1.20;99.90
7496;DHT22;3789;47.064;15.482;2023-02-01T05:12:46;-1.10;99.90
7496;DHT22;3789;47.064;15.482;2023-02-01T05:15:32;-1.10;99.90
7496;DHT22;3789;47.064;15.482;2023-02-01T05:17:59;-1.20;99.90
7496;DHT22;3789;47.064;15.482;2023-02-01T05:20:26;-1.20;99.90
7496;DHT22;3789;47.064;15.482;2023-02-01T05:22:54;-1.30;99.90
7496;DHT22;3789;47.064;15.482;2023-02-01T05:25:21;-1.40;99.90
7496;DHT22;3789;47.064;15.482;2023-02-01T05:27:48;-1.30;99.90
7496;DHT22;3789;47.064;15.482;2023-02-01T05:30:16;-1.30;99.90
7496;DHT22;3789;47.064;15.482;2023-02-01T05:32:43;-1.20;99.90
7496;DHT22;3789;47.064;15.482;2023-02-01T05:35:10;-1.10;99.90
7496;DHT22;3789;47.064;15.482;2023-02-01T05:37:37;-1.10;99.90
7496;DHT22;3789;47.064;15.482;2023-02-01T05:40:05;-1.10;99.90
7496;DHT22;3789;47.064;15.482;2023-02-01T05:42:32;-1.00;99.90
7496;DHT22;3789;47.064;15.482;2023-02-01T05:44:59;-1.00;99.90
7496;DHT22;3789;47.064;15.482;2023-02-01T05:47:26;-1.00;99.90
7496;DHT22;3789;47.064;15.482;2023-02-01T05:49:54;-1.00;99.90
7496;DHT22;3789;47.064;15.482;2023-02-01T05:52:21;-1.00;99.90
7496;DHT22;3789;47.064;15.482;2023-02-01T05:54:48;-1.00;99.90
7496;DHT22;3789;47.064;15.482;2023-02-01T05:57:15;-1.10;99.90
7496;DHT22;3789;47.064;15.482;2023-02-01T05:59:43;-1.10;99.90
7496;DHT22;3789;47.064;15.482;2023-02-01T06:02:12;-1.10;99.90
7496;DHT22;3789;47.064;15.482;2023-02-01T06:04:40;-1.00;99.90
7496;DHT22;3789;47.064;15.482;2023-02-01T06:07:24;-1.00;99.90
7496;DHT22;3789;47.064;15.482;2023-02-01T06:09:55;-0.90;99.90
7496;DHT22;3789;47.064;15.482;2023-02-01T06:12:22;-0.80;99.90
7496;DHT22;3789;47.064;15.482;2023-02-01T06:14:49;-0.80;99.90
7496;DHT22;3789;47.064;15.482;2023-02-01T06:17:16;-0.80;99.90
7496;DHT22;3789;47.064;15.482;2023-02-01T06:19:43;-0.80;99.90
7496;DHT22;3789;47.064;15.482;2023-02-01T06:22:11;-0.90;99.90
7496;DHT22;3789;47.064;15.482;2023-02-01T06:24:39;-0.90;99.90
7496;DHT22;3789;47.064;15.482;2023-02-01T06:27:07;-0.90;99.90
7496;DHT22;3789;47.064;15.482;2023-02-01T06:29:36;-0.80;99.90
7496;DHT22;3789;47.064;15.482;2023-02-01T06:32:03;-0.80;99.90
7496;DHT22;3789;47.064;15.482;2023-02-01T06:34:31;-0.80;99.90
7496;DHT22;3789;47.064;15.482;2023-02-01T06:36:58;-0.70;99.90
7496;DHT22;3789;47.064;15.482;2023-02-01T06:39:25;-0.70;99.90
7496;DHT22;3789;47.064;15.482;2023-02-01T06:41:54;-0.70;99.90
7496;DHT22;3789;47.064;15.482;2023-02-01T06:44:21;-0.60;99.90
7496;DHT22;3789;47.064;15.482;2023-02-01T06:46:48;-0.50;99.90
7496;DHT22;3789;47.064;15.482;2023-02-01T06:49:15;-0.50;99.90
7496;DHT22;3789;47.064;15.482;2023-02-01T06:51:43;-0.40;99.90
7496;DHT22;3789;47.064;15.482;2023-02-01T06:54:10;-0.20;99.90
7496;DHT22;3789;47.064;15.482;2023-02-01T06:56:37;-0.20;99.90
7496;DHT22;3789;47.064;15.482;2023-02-01T06:59:06;-0.10;99.90
7496;DHT22;3789;47.064;15.482;2023-02-01T07:01:34;-0.10;99.90
7496;DHT22;3789;47.064;15.482;2023-02-01T07:04:01;0.00;99.90
7496;DHT22;3789;47.064;15.482;2023-02-01T07:06:28;0.00;99.90
7496;DHT22;3789;47.064;15.482;2023-02-01T07:08:55;0.00;99.90
7496;DHT22;3789;47.064;15.482;2023-02-01T07:11:23;0.00;99.90
7496;DHT22;3789;47.064;15.482;2023-02-01T07:13:50;0.10;99.90
7496;DHT22;3789;47.064;15.482;2023-02-01T07:16:19;0.20;99.90
7496;DHT22;3789;47.064;15.482;2023-02-01T07:18:47;0.40;99.90
7496;DHT22;3789;47.064;15.482;2023-02-01T07:21:14;0.50;99.90
7496;DHT22;3789;47.064;15.482;2023-02-01T07:23:41;0.70;99.90
7496;DHT22;3789;47.064;15.482;2023-02-01T07:26:10;0.90;99.90
7496;DHT22;3789;47.064;15.482;2023-02-01T07:28:40;1.00;99.90
7496;DHT22;3789;47.064;15.482;2023-02-01T07:31:18;1.20;99.90
7496;DHT22;3789;47.064;15.482;2023-02-01T07:33:48;1.40;99.90
7496;DHT22;3789;47.064;15.482;2023-02-01T07:36:18;1.60;99.90
7496;DHT22;3789;47.064;15.482;2023-02-01T07:38:46;1.80;99.90
7496;DHT22;3789;47.064;15.482;2023-02-01T07:41:16;2.00;99.90
7496;DHT22;3789;47.064;15.482;2023-02-01T07:43:44;2.20;99.90
7496;DHT22;3789;47.064;15.482;2023-02-01T07:46:12;2.40;99.90
7496;DHT22;3789;47.064;15.482;2023-02-01T07:48:42;2.60;99.90
7496;DHT22;3789;47.064;15.482;2023-02-01T07:51:14;2.70;99.90
7496;DHT22;3789;47.064;15.482;2023-02-01T07:53:43;2.90;99.90
7496;DHT22;3789;47.064;15.482;2023-02-01T07:56:15;3.10;99.90
7496;DHT22;3789;47.064;15.482;2023-02-01T07:58:50;2.30;99.90
7496;DHT22;3789;47.064;15.482;2023-02-01T08:01:20;3.50;99.90
7496;DHT22;3789;47.064;15.482;2023-02-01T08:03:56;3.80;99.90
7496;DHT22;3789;47.064;15.482;2023-02-01T08:06:24;4.10;99.90
7496;DHT22;3789;47.064;15.482;2023-02-01T08:08:52;4.30;99.90
7496;DHT22;3789;47.064;15.482;2023-02-01T08:11:21;4.60;99.90
7496;DHT22;3789;47.064;15.482;2023-02-01T08:13:48;4.60;99.90
7496;DHT22;3789;47.064;15.482;2023-02-01T08:16:17;4.90;99.90
7496;DHT22;3789;47.064;15.482;2023-02-01T08:18:46;5.20;99.90
7496;DHT22;3789;47.064;15.482;2023-02-01T08:23:44;5.50;99.90
7496;DHT22;3789;47.064;15.482;2023-02-01T08:26:23;4.40;97.20
7496;DHT22;3789;47.064;15.482;2023-02-01T08:28:56;2.80;95.90
7496;DHT22;3789;47.064;15.482;2023-02-01T08:31:24;1.60;97.30
7496;DHT22;3789;47.064;15.482;2023-02-01T08:33:58;1.20;99.90
7496;DHT22;3789;47.064;15.482;2023-02-01T08:36:28;0.80;99.90
7496;DHT22;3789;47.064;15.482;2023-02-01T08:38:56;0.20;99.90
7496;DHT22;3789;47.064;15.482;2023-02-01T08:41:25;0.10;99.90
7496;DHT22;3789;47.064;15.482;2023-02-01T08:43:53;0.40;99.90
7496;DHT22;3789;47.064;15.482;2023-02-01T08:46:21;0.70;99.90
7496;DHT22;3789;47.064;15.482;2023-02-01T08:48:50;0.70;99.90
7496;DHT22;3789;47.064;15.482;2023-02-01T08:51:19;0.50;99.90
7496;DHT22;3789;47.064;15.482;2023-02-01T08:53:47;0.00;99.90
7496;DHT22;3789;47.064;15.482;2023-02-01T08:56:16;-0.40;99.90
7496;DHT22;3789;47.064;15.482;2023-02-01T08:58:43;-1.00;99.90
7496;DHT22;3789;47.064;15.482;2023-02-01T09:01:13;-1.30;99.90
7496;DHT22;3789;47.064;15.482;2023-02-01T09:03:40;-1.30;99.90
7496;DHT22;3789;47.064;15.482;2023-02-01T09:06:11;-1.10;99.90
7496;DHT22;3789;47.064;15.482;2023-02-01T09:08:40;-0.50;99.90
7496;DHT22;3789;47.064;15.482;2023-02-01T09:11:12;0.40;99.90
7496;DHT22;3789;47.064;15.482;2023-02-01T09:13:39;1.30;99.90
7496;DHT22;3789;47.064;15.482;2023-02-01T09:16:06;2.10;99.90
7496;DHT22;3789;47.064;15.482;2023-02-01T09:18:34;2.90;99.90
7496;DHT22;3789;47.064;15.482;2023-02-01T09:21:07;3.60;99.90
7496;DHT22;3789;47.064;15.482;2023-02-01T09:23:34;4.20;99.90
7496;DHT22;3789;47.064;15.482;2023-02-01T09:26:04;4.90;99.90
7496;DHT22;3789;47.064;15.482;2023-02-01T09:28:31;5.40;99.90
7496;DHT22;3789;47.064;15.482;2023-02-01T09:31:00;5.80;99.90
7496;DHT22;3789;47.064;15.482;2023-02-01T09:33:28;6.20;99.90
7496;DHT22;3789;47.064;15.482;2023-02-01T09:35:57;6.60;99.90
7496;DHT22;3789;47.064;15.482;2023-02-01T09:38:25;7.00;99.90
7496;DHT22;3789;47.064;15.482;2023-02-01T09:40:55;7.20;99.90
7496;DHT22;3789;47.064;15.482;2023-02-01T09:46:47;7.60;99.90
7496;DHT22;3789;47.064;15.482;2023-02-01T09:49:23;7.70;99.90
7496;DHT22;3789;47.064;15.482;2023-02-01T09:51:54;7.80;99.90
7496;DHT22;3789;47.064;15.482;2023-02-01T09:54:28;8.00;99.90
7496;DHT22;3789;47.064;15.482;2023-02-01T10:00:06;8.20;99.90
7496;DHT22;3789;47.064;15.482;2023-02-01T10:02:37;8.30;99.90
7496;DHT22;3789;47.064;15.482;2023-02-01T10:05:13;8.40;99.90
7496;DHT22;3789;47.064;15.482;2023-02-01T10:10:23;8.50;99.90
7496;DHT22;3789;47.064;15.482;2023-02-01T10:16:14;8.70;99.90
7496;DHT22;3789;47.064;15.482;2023-02-01T10:26:38;8.70;99.90
7496;DHT22;3789;47.064;15.482;2023-02-01T10:29:20;8.80;99.90
7496;DHT22;3789;47.064;15.482;2023-02-01T10:31:49;8.80;99.10
7496;DHT22;3789;47.064;15.482;2023-02-01T10:34:21;8.80;96.70
7496;DHT22;3789;47.064;15.482;2023-02-01T10:37:01;8.90;96.90
7496;DHT22;3789;47.064;15.482;2023-02-01T10:39:28;8.90;98.70
7496;DHT22;3789;47.064;15.482;2023-02-01T10:41:56;8.90;98.30
7496;DHT22;3789;47.064;15.482;2023-02-01T10:44:29;9.00;99.90
7496;DHT22;3789;47.064;15.482;2023-02-01T10:46:57;9.10;99.90
7496;DHT22;3789;47.064;15.482;2023-02-01T10:49:33;9.30;99.00
7496;DHT22;3789;47.064;15.482;2023-02-01T10:52:13;9.50;97.90
7496;DHT22;3789;47.064;15.482;2023-02-01T10:54:41;9.60;97.30
7496;DHT22;3789;47.064;15.482;2023-02-01T10:57:23;9.60;96.90
7496;DHT22;3789;47.064;15.482;2023-02-01T10:59:52;9.70;97.50
7496;DHT22;3789;47.064;15.482;2023-02-01T11:02:31;9.80;99.70
7496;DHT22;3789;47.064;15.482;2023-02-01T11:05:10;9.10;92.70
7496;DHT22;3789;47.064;15.482;2023-02-01T11:07:40;7.50;92.50
7496;DHT22;3789;47.064;15.482;2023-02-01T11:10:34;6.20;93.70
7496;DHT22;3789;47.064;15.482;2023-02-01T11:13:03;5.10;95.10
7496;DHT22;3789;47.064;15.482;2023-02-01T11:15:31;4.30;96.70
7496;DHT22;3789;47.064;15.482;2023-02-01T11:18:15;3.90;97.60
7496;DHT22;3789;47.064;15.482;2023-02-01T11:20:45;3.70;98.80
7496;DHT22;3789;47.064;15.482;2023-02-01T11:23:18;3.50;99.90
7496;DHT22;3789;47.064;15.482;2023-02-01T11:25:54;3.80;99.90
7496;DHT22;3789;47.064;15.482;2023-02-01T11:28:30;4.50;99.90
7496;DHT22;3789;47.064;15.482;2023-02-01T11:31:02;5.60;99.90
7496;DHT22;3789;47.064;15.482;2023-02-01T11:33:36;6.50;99.90
7496;DHT22;3789;47.064;15.482;2023-02-01T11:36:15;7.30;99.90
7496;DHT22;3789;47.064;15.482;2023-02-01T11:38:53;7.80;99.90
7496;DHT22;3789;47.064;15.482;2023-02-01T11:41:24;8.30;99.90
7496;DHT22;3789;47.064;15.482;2023-02-01T11:44:02;8.50;99.90
7496;DHT22;3789;47.064;15.482;2023-02-01T11:46:46;8.80;99.90
7496;DHT22;3789;47.064;15.482;2023-02-01T11:49:21;9.10;99.60
7496;DHT22;3789;47.064;15.482;2023-02-01T11:58:06;9.70;99.60
7496;DHT22;3789;47.064;15.482;2023-02-01T12:06:56;10.30;97.10
7496;DHT22;3789;47.064;15.482;2023-02-01T12:20:13;10.90;92.50
7496;DHT22;3789;47.064;15.482;2023-02-01T12:25:43;11.00;90.00
7496;DHT22;3789;47.064;15.482;2023-02-01T12:43:09;10.90;84.70
7496;DHT22;3789;47.064;15.482;2023-02-01T12:51:21;10.80;82.50
7496;DHT22;3789;47.064;15.482;2023-02-01T12:56:38;10.60;82.60
7496;DHT22;3789;47.064;15.482;2023-02-01T12:59:42;10.50;82.70
7496;DHT22;3789;47.064;15.482;2023-02-01T13:05:12;10.40;82.00
7496;DHT22;3789;47.064;15.482;2023-02-01T13:07:45;10.40;83.30
7496;DHT22;3789;47.064;15.482;2023-02-01T13:18:35;10.50;84.40
7496;DHT22;3789;47.064;15.482;2023-02-01T13:21:24;10.50;84.30
7496;DHT22;3789;47.064;15.482;2023-02-01T13:23:53;10.60;84.60
7496;DHT22;3789;47.064;15.482;2023-02-01T13:26:20;10.70;84.50
7496;DHT22;3789;47.064;15.482;2023-02-01T13:40:06;10.40;81.60
7496;DHT22;3789;47.064;15.482;2023-02-01T13:45:51;10.30;81.40
7496;DHT22;3789;47.064;15.482;2023-02-01T13:51:02;10.00;82.00
7496;DHT22;3789;47.064;15.482;2023-02-01T13:53:35;10.00;84.20
7496;DHT22;3789;47.064;15.482;2023-02-01T13:56:19;10.00;83.40
7496;DHT22;3789;47.064;15.482;2023-02-01T13:58:48;9.90;84.50
7496;DHT22;3789;47.064;15.482;2023-02-01T14:03:57;9.80;83.50
7496;DHT22;3789;47.064;15.482;2023-02-01T14:09:17;9.60;87.70
7496;DHT22;3789;47.064;15.482;2023-02-01T14:11:47;9.60;88.90
7496;DHT22;3789;47.064;15.482;2023-02-01T14:19:38;9.30;87.60
7496;DHT22;3789;47.064;15.482;2023-02-01T14:24:41;8.90;87.20
7496;DHT22;3789;47.064;15.482;2023-02-01T14:27:24;8.70;89.40
7496;DHT22;3789;47.064;15.482;2023-02-01T14:29:57;8.70;90.20
7496;DHT22;3789;47.064;15.482;2023-02-01T14:32:40;8.70;90.50
7496;DHT22;3789;47.064;15.482;2023-02-01T14:35:21;8.70;90.60
7496;DHT22;3789;47.064;15.482;2023-02-01T14:37:54;8.70;90.90
7496;DHT22;3789;47.064;15.482;2023-02-01T14:40:27;8.80;91.40
7496;DHT22;3789;47.064;15.482;2023-02-01T14:42:55;8.70;90.20
7496;DHT22;3789;47.064;15.482;2023-02-01T14:58:47;8.20;90.90
7496;DHT22;3789;47.064;15.482;2023-02-01T15:01:23;8.30;90.20
7496;DHT22;3789;47.064;15.482;2023-02-01T15:06:36;8.30;90.90
7496;DHT22;3789;47.064;15.482;2023-02-01T15:09:25;8.30;90.90
7496;DHT22;3789;47.064;15.482;2023-02-01T15:11:57;8.20;90.00
7496;DHT22;3789;47.064;15.482;2023-02-01T15:14:25;8.10;88.50
7496;DHT22;3789;47.064;15.482;2023-02-01T15:16:54;8.10;90.20
7496;DHT22;3789;47.064;15.482;2023-02-01T15:19:27;8.00;89.60
7496;DHT22;3789;47.064;15.482;2023-02-01T15:21:56;8.00;90.80
7496;DHT22;3789;47.064;15.482;2023-02-01T15:24:29;8.00;90.40
7496;DHT22;3789;47.064;15.482;2023-02-01T15:27:03;7.90;90.00
7496;DHT22;3789;47.064;15.482;2023-02-01T15:29:31;7.80;90.50
7496;DHT22;3789;47.064;15.482;2023-02-01T15:32:01;7.70;90.40
7496;DHT22;3789;47.064;15.482;2023-02-01T15:34:49;7.70;90.20
7496;DHT22;3789;47.064;15.482;2023-02-01T15:37:17;7.70;91.10
7496;DHT22;3789;47.064;15.482;2023-02-01T15:42:32;7.70;91.00
7496;DHT22;3789;47.064;15.482;2023-02-01T15:45:00;7.60;91.30
7496;DHT22;3789;47.064;15.482;2023-02-01T15:47:29;7.60;91.00
7496;DHT22;3789;47.064;15.482;2023-02-01T15:49:59;7.60;91.20
7496;DHT22;3789;47.064;15.482;2023-02-01T15:52:35;7.50;91.20
7496;DHT22;3789;47.064;15.482;2023-02-01T15:57:52;7.40;91.40
7496;DHT22;3789;47.064;15.482;2023-02-01T16:00:34;7.30;91.40
7496;DHT22;3789;47.064;15.482;2023-02-01T16:03:34;7.20;91.80
7496;DHT22;3789;47.064;15.482;2023-02-01T16:06:11;7.20;91.20
7496;DHT22;3789;47.064;15.482;2023-02-01T16:08:59;7.10;92.20
7496;DHT22;3789;47.064;15.482;2023-02-01T16:14:36;7.10;91.90
7496;DHT22;3789;47.064;15.482;2023-02-01T16:17:03;7.00;91.80
7496;DHT22;3789;47.064;15.482;2023-02-01T16:19:31;7.00;92.00
7496;DHT22;3789;47.064;15.482;2023-02-01T16:21:58;6.90;91.90
7496;DHT22;3789;47.064;15.482;2023-02-01T16:24:25;6.90;92.20
7496;DHT22;3789;47.064;15.482;2023-02-01T16:26:52;6.80;92.40
7496;DHT22;3789;47.064;15.482;2023-02-01T16:29:19;6.80;92.20
7496;DHT22;3789;47.064;15.482;2023-02-01T16:31:48;6.60;92.50
7496;DHT22;3789;47.064;15.482;2023-02-01T16:34:17;6.60;92.50
7496;DHT22;3789;47.064;15.482;2023-02-01T16:36:48;6.50;92.30
7496;DHT22;3789;47.064;15.482;2023-02-01T16:39:20;6.50;92.00
7496;DHT22;3789;47.064;15.482;2023-02-01T16:41:47;6.50;91.60
7496;DHT22;3789;47.064;15.482;2023-02-01T16:44:14;6.40;91.70
7496;DHT22;3789;47.064;15.482;2023-02-01T16:46:44;6.30;92.10
7496;DHT22;3789;47.064;15.482;2023-02-01T16:49:22;6.20;92.40
7496;DHT22;3789;47.064;15.482;2023-02-01T16:51:50;6.10;92.90
7496;DHT22;3789;47.064;15.482;2023-02-01T16:54:19;6.10;93.00
7496;DHT22;3789;47.064;15.482;2023-02-01T16:56:47;6.10;92.40
7496;DHT22;3789;47.064;15.482;2023-02-01T16:59:14;6.10;92.30
7496;DHT22;3789;47.064;15.482;2023-02-01T17:01:41;6.10;92.70
7496;DHT22;3789;47.064;15.482;2023-02-01T17:04:09;6.00;93.10
7496;DHT22;3789;47.064;15.482;2023-02-01T17:06:38;6.10;92.60
7496;DHT22;3789;47.064;15.482;2023-02-01T17:09:06;6.00;92.70
7496;DHT22;3789;47.064;15.482;2023-02-01T17:11:33;6.00;92.70
7496;DHT22;3789;47.064;15.482;2023-02-01T17:14:22;6.00;92.90
7496;DHT22;3789;47.064;15.482;2023-02-01T17:16:53;5.90;93.50
7496;DHT22;3789;47.064;15.482;2023-02-01T17:19:23;5.90;93.40
7496;DHT22;3789;47.064;15.482;2023-02-01T17:21:54;5.90;93.30
7496;DHT22;3789;47.064;15.482;2023-02-01T17:24:24;5.80;93.20
7496;DHT22;3789;47.064;15.482;2023-02-01T17:27:01;5.80;93.00
7496;DHT22;3789;47.064;15.482;2023-02-01T17:29:30;5.70;93.30
7496;DHT22;3789;47.064;15.482;2023-02-01T17:31:57;5.70;93.60
7496;DHT22;3789;47.064;15.482;2023-02-01T17:34:26;5.60;93.50
7496;DHT22;3789;47.064;15.482;2023-02-01T17:36:53;5.60;93.60
7496;DHT22;3789;47.064;15.482;2023-02-01T17:39:21;5.50;93.80
7496;DHT22;3789;47.064;15.482;2023-02-01T17:42:10;5.50;93.90
7496;DHT22;3789;47.064;15.482;2023-02-01T17:44:37;5.50;93.80
7496;DHT22;3789;47.064;15.482;2023-02-01T17:47:04;5.40;93.90
7496;DHT22;3789;47.064;15.482;2023-02-01T17:49:31;5.50;93.80
7496;DHT22;3789;47.064;15.482;2023-02-01T17:52:01;5.40;93.80
7496;DHT22;3789;47.064;15.482;2023-02-01T17:54:28;5.40;93.70
7496;DHT22;3789;47.064;15.482;2023-02-01T17:56:55;5.30;94.40
7496;DHT22;3789;47.064;15.482;2023-02-01T17:59:45;5.20;94.40
7496;DHT22;3789;47.064;15.482;2023-02-01T18:02:22;5.20;94.60
7496;DHT22;3789;47.064;15.482;2023-02-01T18:05:14;5.10;94.90
7496;DHT22;3789;47.064;15.482;2023-02-01T18:08:01;5.10;94.90
7496;DHT22;3789;47.064;15.482;2023-02-01T18:10:28;5.00;95.10
7496;DHT22;3789;47.064;15.482;2023-02-01T18:12:55;5.00;95.30
7496;DHT22;3789;47.064;15.482;2023-02-01T18:15:24;4.90;95.30
7496;DHT22;3789;47.064;15.482;2023-02-01T18:17:52;4.90;95.60
7496;DHT22;3789;47.064;15.482;2023-02-01T18:20:21;4.90;95.50
7496;DHT22;3789;47.064;15.482;2023-02-01T18:22:50;4.90;95.40
7496;DHT22;3789;47.064;15.482;2023-02-01T18:27:52;4.90;95.60
7496;DHT22;3789;47.064;15.482;2023-02-01T18:30:21;4.90;95.20
7496;DHT22;3789;47.064;15.482;2023-02-01T18:32:49;5.00;95.20
7496;DHT22;3789;47.064;15.482;2023-02-01T18:35:25;4.90;95.40
7496;DHT22;3789;47.064;15.482;2023-02-01T18:37:53;4.80;95.60
7496;DHT22;3789;47.064;15.482;2023-02-01T18:40:31;4.80;95.80
7496;DHT22;3789;47.064;15.482;2023-02-01T18:42:59;4.70;95.90
7496;DHT22;3789;47.064;15.482;2023-02-01T18:48:04;4.70;96.00
7496;DHT22;3789;47.064;15.482;2023-02-01T18:50:38;4.70;95.90
7496;DHT22;3789;47.064;15.482;2023-02-01T18:53:11;4.60;96.10
7496;DHT22;3789;47.064;15.482;2023-02-01T18:55:39;4.60;96.40
7496;DHT22;3789;47.064;15.482;2023-02-01T18:58:07;4.60;96.30
7496;DHT22;3789;47.064;15.482;2023-02-01T19:00:35;4.60;96.30
7496;DHT22;3789;47.064;15.482;2023-02-01T19:03:02;4.50;96.80
7496;DHT22;3789;47.064;15.482;2023-02-01T19:05:30;4.50;96.80
7496;DHT22;3789;47.064;15.482;2023-02-01T19:08:15;4.50;97.10
7496;DHT22;3789;47.064;15.482;2023-02-01T19:10:42;4.50;96.80
7496;DHT22;3789;47.064;15.482;2023-02-01T19:13:11;4.50;97.40
7496;DHT22;3789;47.064;15.482;2023-02-01T19:15:42;4.50;97.20
7496;DHT22;3789;47.064;15.482;2023-02-01T19:18:09;4.40;97.10
7496;DHT22;3789;47.064;15.482;2023-02-01T19:20:37;4.50;97.30
7496;DHT22;3789;47.064;15.482;2023-02-01T19:23:12;4.50;97.40
7496;DHT22;3789;47.064;15.482;2023-02-01T19:25:43;4.50;97.40